Assaria, Kansas
Current Conditions -  °F | °C
As of 7:53 PM on Friday 19 Dec 2014 (Local Time) from KSLN Reporting Station
Haze Haze  
Wind Chill: -3°   Ceiling: Unl
Heat Index:   Visibility: 6mi
Dew Point: -1°   Wind: 8mph
Humidity: 89%   Direction: 160°SSE
Pressure: 30.14"   Gusts: NA
Location:  38.68°N, 97.6°W
Report Text: KSLN 200153Z 16007KT 6SM BR FEW019 01/M01 A3014 RMK AO2 SLP219 T00061011
Loading
Personal Weather Stations






























Interactive Weather Map New forecast layout! Learn more

10-Day Weather Forecast

Advertisements
Track Severe Weather on mobile